Saint Thomas, Canada
Current Conditions -  °F | °C
As of 5:00 PM on Tuesday 25 Nov 2014 (Local Time) from CYXU Reporting Station
Snow Showers Snow Showers  
Wind Chill: 23°   Ceiling: 2100
Heat Index: 32°   Visibility: 10mi
Dew Point: 25°   Wind: 13mph
Humidity: 75%   Direction: 240°WSW
Pressure: 30.05"   Gusts: NA
Location:  42.78°N, 81.18°W
Report Text: CYXU 252200Z 24011KT 10SM -SHSN BKN021 OVC033 M00/M04 A3005 RMK SC5SC3 SLP188
Loading
Personal Weather Stations






























Interactive Weather Map New forecast layout! Learn more

10-Day Weather Forecast

Advertisements
Track Severe Weather on mobile